SEASEATTLE-TACOMA INTL
METARs for airports near SEA, sorted by distance:
N 0 nm 432' KSEA 181653Z VRB06KT 10SM SCT250 18/09 A3013
NE 4 nm 32' KRNT 181653Z 35008KT 10SM CLR 18/09 A3013
N 4 nm 21' KBFI 181653Z 06004KT 10SM SCT250 17/09 A3013
SW 15 nm 294' KTIW 181653Z 10SM CLR 16/08 A3013
W 18 nm 444' KPWT 181656Z 10SM CLR 18/11
S 19 nm 322' KTCM 181658Z 02006KT 10SM CLR 18/09 A3012
S 20 nm 537' KPLU 181735Z 00000KT 10SM CLR 19/10 A3012
SW 24 nm 301' KGRF 181658Z 28004KT 10SM CLR 18/10 A3012
N 27 nm 607' KPAE 181653Z 02008KT 10SM CLR 14/09 A3015
W 36 nm 272' KSHN 181653Z VRB04KT 10SM CLR 18/10 A3011
SW 37 nm 207' KOLM 181654Z 36004KT 10SM CLR 17/10 A3013
N 43 nm 141' KAWO 181656Z 31004KT 10SM OVC022 16/11 A3015
SW 53 nm 177' KCLS 181735Z VRB04KT 10SM CLR 18/12 A3013
N 55 nm 47' KNUW 181656Z 26013KT 10SM FEW025 SCT120 BKN220 15/10 A3017
NW 60 nm 13' KNOW 181735Z 31013KT 10SM CLR 14/11 A3015
N 61 nm 145' KBVS 181735Z 21007KT 7SM CLR 20/11 A3013
NW 62 nm 291' KCLM 181653Z 30012G19KT 10SM CLR 15/10 A3016
NW 70 nm 112' KFHR 181723Z 19004KT 10SM SCT024 18/11 A3013
SW 72 nm 17' KHQM 181653Z 32007KT 10SM CLR 18/10 A3015
E 76 nm 1763' KELN 181653Z 29007KT 10SM CLR 24/03 A3001
N 79 nm 34' KORS 181735Z VRB03KT 10SM SCT019 17/12 A3011
N 81 nm 171' KBLI 181653Z 18010G16KT 10SM CLR 16/06 A3011
S 83 nm 20' KKLS 181656Z VRB03KT 10SM CLR 17/10 A3013
NW 84 nm 64' CYYJ 181700Z 13005KT 090V160 30SM FEW040 SCT250 18/09 A3011
E 85 nm 1248' KEAT 181655Z 23005KT 10SM CLR 22/07 A2999
SE 89 nm 1098' KYKM 181653Z VRB03KT 10SM CLR 24/04 A2999
W 95 nm 193' KUIL 181653Z 32008KT 10SM BKN024 14/09 A3018
TAFs for airports near SEA, sorted by distance:
N 0 nm 432' KSEA KSEA 181729Z 1818/1924 35007KT P6SM SCT250
  FM181900 34009KT P6SM SCT200
  FM190100 34012KT P6SM SKC
  FM190700 02006KT P6SM SCT200
  FM191400 VRB04KT P6SM SCT200
N 4 nm 21' KBFI KBFI 181729Z 1818/1918 VRB04KT P6SM SCT250
  FM182300 31007KT P6SM SKC
  FM190700 VRB03KT P6SM SKC
W 18 nm 444' KPWT TAF KPWT 181729Z 1818/1918 VRB05KT P6SM SCT250
  FM181900 34007KT P6SM SCT200
  FM182300 04007KT P6SM SCT200
  FM190900 VRB03KT P6SM SCT200
S 19 nm 322' KTCM TAF KTCM 181300Z 1813/1919 VRB06KT 9999 FEW150 QNH3011INS
  BECMG 1820/1821 34012KT 9999 FEW100 SCT150 QNH3002INS
  BECMG 1902/1903 VRB06KT 9999 SCT100 BKN150 QNH3002INS
  BECMG 1911/1912 18006KT 9999 SCT100 QNH3005INS TX23/1900Z TN08/1813Z
SW 24 nm 301' KGRF TAF TAF KGRF 181300Z 1813/1919 15006KT 9999 SKC QNH3007INS
  BECMG 1819/1820 35010KT 9999 FEW250 QNH3006INS
  BECMG 1903/1904 35006KT 9999 FEW050 FEW200 QNH3004INS
  BECMG 1907/1908 33006KT 9999 SCT200 QNH3006INS
  BECMG 1916/1917 22008KT 9999 BKN070 BKN200 QNH3007INS TX26/1823Z TN08/1813Z
N 27 nm 607' KPAE TAF KPAE 181729Z 1818/1918 02008KT P6SM SCT250
  FM182100 35007KT P6SM SCT200
  FM190800 01004KT P6SM SCT200
SW 37 nm 207' KOLM KOLM 181729Z 1818/1918 01004KT P6SM SCT200
  FM182100 35006KT P6SM SCT200
  FM190700 18004KT P6SM BKN200
N 55 nm 47' KNUW TAF COR KNUW 1815/1915 26009KT 9999 FEW005 SCT050 BKN250 QNH3012INS
  TEMPO 1815/1519 VRB06KT
  FM181900 27009KT 9999 FEW050 SCT250 QNH3009INS
  FM190500 24008KT 9999 SCT050 BKN250 QNH3005INS
  FM191000 23007KT 9999 SCT005 BKN050 BKN250 QNH3004INS
  TEMPO 1910/1915 6000 BR BKN005 T17/1822Z T10/1913Z COR 1540 FS30004
NW 62 nm 291' KCLM KCLM 181729Z 1818/1918 28011KT P6SM SCT200
  FM190200 31014G20KT P6SM BKN250
SW 72 nm 17' KHQM KHQM 181729Z 1818/1918 32010KT P6SM SKC
  FM182100 25017KT P6SM FEW250
  FM190800 29007KT P6SM BKN025
  FM191200 27004KT P6SM OVC015
N 81 nm 171' KBLI KBLI 181729Z 1818/1918 30012G20KT P6SM SCT200
  FM190800 29013KT P6SM SCT250
E 85 nm 1248' KEAT KEAT 181734Z 1818/1918 23005KT P6SM SKC
  FM190000 29016G22KT P6SM SCT250
  FM190800 30011KT P6SM BKN200
SE 89 nm 1098' KYKM KYKM 181721Z 1818/1918 VRB05KT P6SM SKC
  FM190200 32012G20KT P6SM FEW250
  FM190900 32006KT P6SM SCT250

Shortcut to this page: http://wxbay.com.

Data may contain errors.